sensor_id;sensor_type;location;lat;lon;timestamp;temperature;humidity
5492;DHT22;2768;53.540;10.224;2022-07-01T00:01:26;22.50;99.90
5492;DHT22;2768;53.540;10.224;2022-07-01T00:07:20;22.60;99.90
5492;DHT22;2768;53.540;10.224;2022-07-01T00:13:14;22.80;99.90
5492;DHT22;2768;53.540;10.224;2022-07-01T00:19:07;23.00;99.90
5492;DHT22;2768;53.540;10.224;2022-07-01T00:25:01;23.10;99.90
5492;DHT22;2768;53.540;10.224;2022-07-01T00:30:55;23.20;99.90
5492;DHT22;2768;53.540;10.224;2022-07-01T00:36:48;22.80;98.20
5492;DHT22;2768;53.540;10.224;2022-07-01T00:42:42;22.20;99.90
5492;DHT22;2768;53.540;10.224;2022-07-01T00:48:37;22.20;99.90
5492;DHT22;2768;53.540;10.224;2022-07-01T00:54:31;22.30;99.90
5492;DHT22;2768;53.540;10.224;2022-07-01T01:00:24;21.60;99.90
5492;DHT22;2768;53.540;10.224;2022-07-01T01:06:19;21.10;99.90
5492;DHT22;2768;53.540;10.224;2022-07-01T01:12:12;20.50;99.90
5492;DHT22;2768;53.540;10.224;2022-07-01T01:18:06;20.30;1.00
5492;DHT22;2768;53.540;10.224;2022-07-01T01:24:00;20.00;1.00
5492;DHT22;2768;53.540;10.224;2022-07-01T01:29:54;20.50;1.00
5492;DHT22;2768;53.540;10.224;2022-07-01T01:35:47;20.60;99.90
5492;DHT22;2768;53.540;10.224;2022-07-01T01:41:41;20.60;99.90
5492;DHT22;2768;53.540;10.224;2022-07-01T01:47:34;20.50;99.90
5492;DHT22;2768;53.540;10.224;2022-07-01T01:53:27;20.70;99.90
5492;DHT22;2768;53.540;10.224;2022-07-01T01:59:21;20.70;99.90
5492;DHT22;2768;53.540;10.224;2022-07-01T02:05:15;20.90;99.90
5492;DHT22;2768;53.540;10.224;2022-07-01T02:11:08;20.60;99.90
5492;DHT22;2768;53.540;10.224;2022-07-01T02:17:03;20.60;99.90
5492;DHT22;2768;53.540;10.224;2022-07-01T02:22:56;20.20;99.90
5492;DHT22;2768;53.540;10.224;2022-07-01T02:28:49;20.10;99.90
5492;DHT22;2768;53.540;10.224;2022-07-01T02:34:43;20.40;99.90
5492;DHT22;2768;53.540;10.224;2022-07-01T02:40:36;20.40;99.90
5492;DHT22;2768;53.540;10.224;2022-07-01T02:46:31;20.40;99.90
5492;DHT22;2768;53.540;10.224;2022-07-01T02:52:26;20.40;99.90
5492;DHT22;2768;53.540;10.224;2022-07-01T02:58:19;20.30;99.90
5492;DHT22;2768;53.540;10.224;2022-07-01T03:04:12;20.50;99.90
5492;DHT22;2768;53.540;10.224;2022-07-01T03:10:08;20.30;99.90
5492;DHT22;2768;53.540;10.224;2022-07-01T03:16:01;20.20;99.90
5492;DHT22;2768;53.540;10.224;2022-07-01T03:21:54;19.60;99.90
5492;DHT22;2768;53.540;10.224;2022-07-01T03:27:49;19.40;99.90
5492;DHT22;2768;53.540;10.224;2022-07-01T03:33:42;19.40;1.00
5492;DHT22;2768;53.540;10.224;2022-07-01T03:39:36;19.40;1.00
5492;DHT22;2768;53.540;10.224;2022-07-01T03:45:30;19.60;1.00
5492;DHT22;2768;53.540;10.224;2022-07-01T03:51:23;19.60;1.00
5492;DHT22;2768;53.540;10.224;2022-07-01T03:57:17;19.70;1.00
5492;DHT22;2768;53.540;10.224;2022-07-01T04:03:11;19.80;1.00
5492;DHT22;2768;53.540;10.224;2022-07-01T04:09:04;19.80;1.00
5492;DHT22;2768;53.540;10.224;2022-07-01T04:14:57;20.00;1.00
5492;DHT22;2768;53.540;10.224;2022-07-01T04:20:51;20.00;1.00
5492;DHT22;2768;53.540;10.224;2022-07-01T04:27:02;20.00;1.00
5492;DHT22;2768;53.540;10.224;2022-07-01T04:32:55;20.20;1.00
5492;DHT22;2768;53.540;10.224;2022-07-01T04:38:50;20.20;1.00
5492;DHT22;2768;53.540;10.224;2022-07-01T04:44:42;19.90;1.00
5492;DHT22;2768;53.540;10.224;2022-07-01T04:50:36;19.80;1.00
5492;DHT22;2768;53.540;10.224;2022-07-01T04:56:30;19.90;1.00
5492;DHT22;2768;53.540;10.224;2022-07-01T05:02:24;19.80;1.00
5492;DHT22;2768;53.540;10.224;2022-07-01T05:08:17;19.60;1.00
5492;DHT22;2768;53.540;10.224;2022-07-01T05:14:12;19.40;1.00
5492;DHT22;2768;53.540;10.224;2022-07-01T05:20:06;19.10;1.00
5492;DHT22;2768;53.540;10.224;2022-07-01T05:26:16;18.70;1.00
5492;DHT22;2768;53.540;10.224;2022-07-01T05:32:11;18.80;1.00
5492;DHT22;2768;53.540;10.224;2022-07-01T05:38:04;18.20;1.00
5492;DHT22;2768;53.540;10.224;2022-07-01T05:43:57;17.80;1.00
5492;DHT22;2768;53.540;10.224;2022-07-01T05:49:51;17.70;1.00
5492;DHT22;2768;53.540;10.224;2022-07-01T05:55:44;17.70;1.00
5492;DHT22;2768;53.540;10.224;2022-07-01T06:01:37;17.60;1.00
5492;DHT22;2768;53.540;10.224;2022-07-01T06:07:31;17.50;1.00
5492;DHT22;2768;53.540;10.224;2022-07-01T06:13:24;17.40;1.00
5492;DHT22;2768;53.540;10.224;2022-07-01T06:19:18;17.30;1.00
5492;DHT22;2768;53.540;10.224;2022-07-01T06:25:13;17.30;1.00
5492;DHT22;2768;53.540;10.224;2022-07-01T06:31:06;17.40;1.00
5492;DHT22;2768;53.540;10.224;2022-07-01T06:36:59;17.30;1.00
5492;DHT22;2768;53.540;10.224;2022-07-01T06:42:54;17.40;1.00
5492;DHT22;2768;53.540;10.224;2022-07-01T06:48:47;17.30;1.00
5492;DHT22;2768;53.540;10.224;2022-07-01T06:54:40;17.00;1.00
5492;DHT22;2768;53.540;10.224;2022-07-01T07:00:35;16.80;1.00
5492;DHT22;2768;53.540;10.224;2022-07-01T07:06:28;17.00;1.00
5492;DHT22;2768;53.540;10.224;2022-07-01T07:12:21;17.00;1.00
5492;DHT22;2768;53.540;10.224;2022-07-01T07:18:16;17.20;1.00
5492;DHT22;2768;53.540;10.224;2022-07-01T07:24:09;17.50;1.00
5492;DHT22;2768;53.540;10.224;2022-07-01T07:30:02;17.60;1.00
5492;DHT22;2768;53.540;10.224;2022-07-01T07:35:57;17.70;1.00
5492;DHT22;2768;53.540;10.224;2022-07-01T07:41:50;17.30;1.00
5492;DHT22;2768;53.540;10.224;2022-07-01T07:47:44;17.30;1.00
5492;DHT22;2768;53.540;10.224;2022-07-01T07:53:38;16.90;1.00
5492;DHT22;2768;53.540;10.224;2022-07-01T07:59:31;16.80;1.00
5492;DHT22;2768;53.540;10.224;2022-07-01T08:05:24;16.80;1.00
5492;DHT22;2768;53.540;10.224;2022-07-01T08:11:19;17.00;1.00
5492;DHT22;2768;53.540;10.224;2022-07-01T08:17:13;17.10;1.00
5492;DHT22;2768;53.540;10.224;2022-07-01T08:23:06;16.90;1.00
5492;DHT22;2768;53.540;10.224;2022-07-01T08:29:00;16.80;1.00
5492;DHT22;2768;53.540;10.224;2022-07-01T08:34:54;16.80;1.00
5492;DHT22;2768;53.540;10.224;2022-07-01T08:40:47;16.60;1.00
5492;DHT22;2768;53.540;10.224;2022-07-01T08:46:46;16.50;1.00
5492;DHT22;2768;53.540;10.224;2022-07-01T08:52:39;16.70;1.00
5492;DHT22;2768;53.540;10.224;2022-07-01T08:58:32;16.80;1.00
5492;DHT22;2768;53.540;10.224;2022-07-01T09:04:28;16.90;1.00
5492;DHT22;2768;53.540;10.224;2022-07-01T09:10:23;17.10;1.00
5492;DHT22;2768;53.540;10.224;2022-07-01T09:16:17;17.10;1.00
5492;DHT22;2768;53.540;10.224;2022-07-01T09:22:11;17.20;1.00
5492;DHT22;2768;53.540;10.224;2022-07-01T09:28:06;17.20;1.00
5492;DHT22;2768;53.540;10.224;2022-07-01T09:34:04;17.00;1.00
5492;DHT22;2768;53.540;10.224;2022-07-01T09:39:59;16.80;1.00
5492;DHT22;2768;53.540;10.224;2022-07-01T09:45:54;16.70;1.00
5492;DHT22;2768;53.540;10.224;2022-07-01T09:51:49;16.50;1.00
5492;DHT22;2768;53.540;10.224;2022-07-01T09:57:43;16.40;1.00
5492;DHT22;2768;53.540;10.224;2022-07-01T10:03:37;16.70;1.00
5492;DHT22;2768;53.540;10.224;2022-07-01T10:10:02;16.80;1.00
5492;DHT22;2768;53.540;10.224;2022-07-01T10:15:59;16.80;1.00
5492;DHT22;2768;53.540;10.224;2022-07-01T10:21:55;16.90;1.00
5492;DHT22;2768;53.540;10.224;2022-07-01T10:28:11;16.50;1.00
5492;DHT22;2768;53.540;10.224;2022-07-01T10:34:06;16.30;1.00
5492;DHT22;2768;53.540;10.224;2022-07-01T10:40:00;16.20;1.00
5492;DHT22;2768;53.540;10.224;2022-07-01T10:45:54;16.40;1.00
5492;DHT22;2768;53.540;10.224;2022-07-01T10:51:50;16.40;1.00
5492;DHT22;2768;53.540;10.224;2022-07-01T10:57:43;16.40;1.00
5492;DHT22;2768;53.540;10.224;2022-07-01T11:03:37;16.50;1.00
5492;DHT22;2768;53.540;10.224;2022-07-01T11:09:33;16.40;1.00
5492;DHT22;2768;53.540;10.224;2022-07-01T11:15:27;16.60;1.00
5492;DHT22;2768;53.540;10.224;2022-07-01T11:21:23;16.50;1.00
5492;DHT22;2768;53.540;10.224;2022-07-01T11:27:18;16.70;1.00
5492;DHT22;2768;53.540;10.224;2022-07-01T11:33:11;16.70;1.00
5492;DHT22;2768;53.540;10.224;2022-07-01T11:39:04;16.50;1.00
5492;DHT22;2768;53.540;10.224;2022-07-01T11:45:24;16.50;1.00
5492;DHT22;2768;53.540;10.224;2022-07-01T11:51:18;16.50;1.00
5492;DHT22;2768;53.540;10.224;2022-07-01T11:57:13;16.40;1.00
5492;DHT22;2768;53.540;10.224;2022-07-01T12:03:09;16.60;1.00
5492;DHT22;2768;53.540;10.224;2022-07-01T12:09:03;16.90;1.00
5492;DHT22;2768;53.540;10.224;2022-07-01T12:14:57;16.80;1.00
5492;DHT22;2768;53.540;10.224;2022-07-01T12:20:53;16.90;1.00
5492;DHT22;2768;53.540;10.224;2022-07-01T12:26:51;16.90;1.00
5492;DHT22;2768;53.540;10.224;2022-07-01T12:32:44;17.00;1.00
5492;DHT22;2768;53.540;10.224;2022-07-01T12:38:39;16.90;1.00
5492;DHT22;2768;53.540;10.224;2022-07-01T12:44:32;17.10;1.00
5492;DHT22;2768;53.540;10.224;2022-07-01T12:50:26;17.20;1.00
5492;DHT22;2768;53.540;10.224;2022-07-01T12:56:25;17.40;1.00
5492;DHT22;2768;53.540;10.224;2022-07-01T13:02:18;17.70;1.00
5492;DHT22;2768;53.540;10.224;2022-07-01T13:08:11;17.50;1.00
5492;DHT22;2768;53.540;10.224;2022-07-01T13:14:05;17.70;1.00
5492;DHT22;2768;53.540;10.224;2022-07-01T13:19:59;17.60;99.90
5492;DHT22;2768;53.540;10.224;2022-07-01T13:25:52;18.00;99.90
5492;DHT22;2768;53.540;10.224;2022-07-01T13:31:46;17.70;99.90
5492;DHT22;2768;53.540;10.224;2022-07-01T13:37:40;18.00;99.90
5492;DHT22;2768;53.540;10.224;2022-07-01T13:43:33;18.20;99.90
5492;DHT22;2768;53.540;10.224;2022-07-01T13:49:27;18.20;99.90
5492;DHT22;2768;53.540;10.224;2022-07-01T13:55:21;18.50;99.90
5492;DHT22;2768;53.540;10.224;2022-07-01T14:01:14;18.90;99.90
5492;DHT22;2768;53.540;10.224;2022-07-01T14:07:08;18.90;99.90
5492;DHT22;2768;53.540;10.224;2022-07-01T14:13:01;19.30;99.90
5492;DHT22;2768;53.540;10.224;2022-07-01T14:18:55;19.50;99.90
5492;DHT22;2768;53.540;10.224;2022-07-01T14:24:49;19.30;99.90
5492;DHT22;2768;53.540;10.224;2022-07-01T14:30:42;19.20;99.90
5492;DHT22;2768;53.540;10.224;2022-07-01T14:36:35;18.90;99.90
5492;DHT22;2768;53.540;10.224;2022-07-01T14:42:30;18.80;99.90
5492;DHT22;2768;53.540;10.224;2022-07-01T14:48:23;18.80;99.90
5492;DHT22;2768;53.540;10.224;2022-07-01T14:54:16;18.80;99.90
5492;DHT22;2768;53.540;10.224;2022-07-01T15:00:11;18.70;99.90
5492;DHT22;2768;53.540;10.224;2022-07-01T15:06:04;18.60;99.90
5492;DHT22;2768;53.540;10.224;2022-07-01T15:11:57;18.60;99.90
5492;DHT22;2768;53.540;10.224;2022-07-01T15:17:52;18.60;99.90
5492;DHT22;2768;53.540;10.224;2022-07-01T15:23:45;18.60;99.90
5492;DHT22;2768;53.540;10.224;2022-07-01T15:29:38;18.80;99.90
5492;DHT22;2768;53.540;10.224;2022-07-01T15:35:33;18.70;99.90
5492;DHT22;2768;53.540;10.224;2022-07-01T15:41:26;18.80;99.90
5492;DHT22;2768;53.540;10.224;2022-07-01T15:47:19;18.80;99.90
5492;DHT22;2768;53.540;10.224;2022-07-01T15:53:31;18.60;99.90
5492;DHT22;2768;53.540;10.224;2022-07-01T15:59:25;18.70;99.90
5492;DHT22;2768;53.540;10.224;2022-07-01T16:05:18;18.70;99.90
5492;DHT22;2768;53.540;10.224;2022-07-01T16:11:13;18.70;99.90
5492;DHT22;2768;53.540;10.224;2022-07-01T16:17:06;18.70;99.90
5492;DHT22;2768;53.540;10.224;2022-07-01T16:23:02;18.70;99.90
5492;DHT22;2768;53.540;10.224;2022-07-01T16:28:58;18.70;99.90
5492;DHT22;2768;53.540;10.224;2022-07-01T16:34:51;18.70;99.90
5492;DHT22;2768;53.540;10.224;2022-07-01T16:40:50;18.60;99.90
5492;DHT22;2768;53.540;10.224;2022-07-01T16:46:49;18.80;99.90
5492;DHT22;2768;53.540;10.224;2022-07-01T16:52:45;18.80;99.90
5492;DHT22;2768;53.540;10.224;2022-07-01T16:58:39;18.80;99.90
5492;DHT22;2768;53.540;10.224;2022-07-01T17:04:34;18.80;99.90
5492;DHT22;2768;53.540;10.224;2022-07-01T17:10:29;18.60;99.90
5492;DHT22;2768;53.540;10.224;2022-07-01T17:16:23;18.50;99.90
5492;DHT22;2768;53.540;10.224;2022-07-01T17:28:37;18.60;99.90
5492;DHT22;2768;53.540;10.224;2022-07-01T17:34:32;18.60;99.90
5492;DHT22;2768;53.540;10.224;2022-07-01T17:40:27;18.50;99.90
5492;DHT22;2768;53.540;10.224;2022-07-01T17:46:24;18.70;99.90
5492;DHT22;2768;53.540;10.224;2022-07-01T17:52:18;18.60;99.90
5492;DHT22;2768;53.540;10.224;2022-07-01T17:58:12;18.60;99.90
5492;DHT22;2768;53.540;10.224;2022-07-01T18:04:07;18.70;99.90
5492;DHT22;2768;53.540;10.224;2022-07-01T18:10:00;18.70;99.90
5492;DHT22;2768;53.540;10.224;2022-07-01T18:15:59;18.80;99.90
5492;DHT22;2768;53.540;10.224;2022-07-01T18:21:59;18.80;99.90
5492;DHT22;2768;53.540;10.224;2022-07-01T18:27:53;18.80;99.90
5492;DHT22;2768;53.540;10.224;2022-07-01T18:33:56;18.80;99.90
5492;DHT22;2768;53.540;10.224;2022-07-01T18:39:50;18.80;99.90
5492;DHT22;2768;53.540;10.224;2022-07-01T18:45:43;18.70;99.90
5492;DHT22;2768;53.540;10.224;2022-07-01T18:51:37;18.70;99.90
5492;DHT22;2768;53.540;10.224;2022-07-01T18:57:30;18.60;99.90
5492;DHT22;2768;53.540;10.224;2022-07-01T19:03:23;18.60;99.90
5492;DHT22;2768;53.540;10.224;2022-07-01T19:09:18;18.60;99.90
5492;DHT22;2768;53.540;10.224;2022-07-01T19:15:11;18.50;99.90
5492;DHT22;2768;53.540;10.224;2022-07-01T19:21:04;18.30;99.90
5492;DHT22;2768;53.540;10.224;2022-07-01T19:26:58;18.30;99.90
5492;DHT22;2768;53.540;10.224;2022-07-01T19:32:51;18.20;99.90
5492;DHT22;2768;53.540;10.224;2022-07-01T19:38:44;18.10;99.90
5492;DHT22;2768;53.540;10.224;2022-07-01T19:44:39;18.00;99.90
5492;DHT22;2768;53.540;10.224;2022-07-01T19:50:33;18.00;99.90
5492;DHT22;2768;53.540;10.224;2022-07-01T19:56:26;17.90;99.90
5492;DHT22;2768;53.540;10.224;2022-07-01T20:02:21;17.90;99.90
5492;DHT22;2768;53.540;10.224;2022-07-01T20:08:14;17.80;99.90
5492;DHT22;2768;53.540;10.224;2022-07-01T20:14:08;17.80;99.90
5492;DHT22;2768;53.540;10.224;2022-07-01T20:20:03;17.70;99.90
5492;DHT22;2768;53.540;10.224;2022-07-01T20:25:56;17.70;99.90
5492;DHT22;2768;53.540;10.224;2022-07-01T20:31:49;17.70;99.90
5492;DHT22;2768;53.540;10.224;2022-07-01T20:37:43;17.50;99.90
5492;DHT22;2768;53.540;10.224;2022-07-01T20:43:36;17.40;99.90
5492;DHT22;2768;53.540;10.224;2022-07-01T20:49:29;17.40;99.90
5492;DHT22;2768;53.540;10.224;2022-07-01T20:55:24;17.40;99.90
5492;DHT22;2768;53.540;10.224;2022-07-01T21:01:17;17.20;99.90
5492;DHT22;2768;53.540;10.224;2022-07-01T21:07:10;17.00;99.90
5492;DHT22;2768;53.540;10.224;2022-07-01T21:13:05;17.10;99.90
5492;DHT22;2768;53.540;10.224;2022-07-01T21:18:58;17.10;99.90
5492;DHT22;2768;53.540;10.224;2022-07-01T21:24:51;17.00;99.90
5492;DHT22;2768;53.540;10.224;2022-07-01T21:30:45;16.70;99.90
5492;DHT22;2768;53.540;10.224;2022-07-01T21:36:39;16.60;99.90
5492;DHT22;2768;53.540;10.224;2022-07-01T21:42:32;16.50;99.90
5492;DHT22;2768;53.540;10.224;2022-07-01T21:48:27;16.30;99.90
5492;DHT22;2768;53.540;10.224;2022-07-01T21:54:27;16.40;99.90
5492;DHT22;2768;53.540;10.224;2022-07-01T22:00:21;16.20;99.90
5492;DHT22;2768;53.540;10.224;2022-07-01T22:06:17;16.00;99.90
5492;DHT22;2768;53.540;10.224;2022-07-01T22:12:29;15.70;99.90
5492;DHT22;2768;53.540;10.224;2022-07-01T22:18:23;15.50;99.90
5492;DHT22;2768;53.540;10.224;2022-07-01T22:24:18;15.70;99.90
5492;DHT22;2768;53.540;10.224;2022-07-01T22:30:13;15.70;99.90
5492;DHT22;2768;53.540;10.224;2022-07-01T22:36:07;15.90;99.90
5492;DHT22;2768;53.540;10.224;2022-07-01T22:42:04;15.60;99.90
5492;DHT22;2768;53.540;10.224;2022-07-01T22:48:01;15.70;99.90
5492;DHT22;2768;53.540;10.224;2022-07-01T22:54:01;15.70;99.90
5492;DHT22;2768;53.540;10.224;2022-07-01T22:59:59;15.50;99.90
5492;DHT22;2768;53.540;10.224;2022-07-01T23:05:54;15.40;99.90
5492;DHT22;2768;53.540;10.224;2022-07-01T23:11:52;15.10;99.90
5492;DHT22;2768;53.540;10.224;2022-07-01T23:17:48;15.40;99.90
5492;DHT22;2768;53.540;10.224;2022-07-01T23:23:44;15.10;99.90
5492;DHT22;2768;53.540;10.224;2022-07-01T23:29:37;14.90;99.90
5492;DHT22;2768;53.540;10.224;2022-07-01T23:35:32;15.00;99.90
5492;DHT22;2768;53.540;10.224;2022-07-01T23:41:25;15.30;99.90
5492;DHT22;2768;53.540;10.224;2022-07-01T23:47:19;15.30;99.90
5492;DHT22;2768;53.540;10.224;2022-07-01T23:53:13;15.00;99.90
5492;DHT22;2768;53.540;10.224;2022-07-01T23:59:06;15.00;99.90
